プンタアレナス の空港の天気 - METARとTAF

プンタアレナス空港 ( SCCI / PUQ ) - チリ プンタアレナス
飛行場実況気象(Metar)
観測時間10/22 08:00 CLST (10/22 11:00 UTC)
風向・風速不定 1m/s
視程10km以上
天気現象
全天の4割程度の雲 雲底高度 1070m
全天の8割程度の雲 雲底高度 2440m
気温7℃
湿度81%
気圧1008hPa
METARSCCI 221100Z VRB02KT 9999 SCT035 BKN080 07/04 Q1008 NOSIG
過去の天気等 Google飛行場航空写真 Wunderground天気予報

過去48時間のMETAR

飛行場予報(TAF)
発表時間: 10/22 07:58 CLST (10/22 10:58 UTC)
予報対象時間: 22日9時 CLST ~ 23日9時 CLST
風向・風速西北西 4m/s
視程10km以上
少しの雲 雲底高度 1160m
全天の4割程度の雲 雲底高度 1460m
22日9時 CLST ~ 22日11時 CLST に一時的に
風向・風速不定 2m/s
22日11時 CLST ~ 22日13時 CLST に徐々に
風向・風速西 5m/s
22日11時 CLST ~ 22日17時 CLST に 確率 30% で一時的に
視程10km以上
天気現象弱いしゅう雨
少しの雲 雲底高度 1070m
全天の4割程度の雲 雲底高度 1520m
22日13時 CLST ~ 22日15時 CLST に徐々に
視程10km以上
なし
22日21時 CLST ~ 22日23時 CLST に徐々に
風向・風速不定 2m/s
TAF SCCI 221058Z 2212/2312 29007KT 9999 FEW038 SCT048 TN05/2309Z TX11/2218Z
TEMPO 2212/2214 VRB03KT
BECMG 2214/2216 27010KT
PROB30 TEMPO 2214/2220 9999 -SHRA FEW035 SCT050
BECMG 2216/2218 CAVOK
BECMG 2300/2302 VRB03KT